EW1544 Yarmouth MA US current weather conditions

sailwx.info

Wind from 021 at 0 knots gusting 3

Air temperature 22.2° C
Dewpoint 17.8° C

Last reported at 2019-Aug-23 21:04 UTC.
Time now 2019-Aug-23 21:51 UTC

Location: N 41°40' W 070°15'.
View on Google Maps.

See reports from other nearby stations

  
Tides and Currents Weather Stations Pressure Air Temp Water Temp Dewpoint Dewpoint Depression Visibility Wind Speed Wind Dir Waves Ship Positions
date/time (UTC)wind fromknots sea level pressurealtimeterstation pressurevisibilityair tempwater tempwave heightnotes
2019-Aug-23 21:04 021 0 gusting 3 22.2
2019-Aug-23 20:54 324 1 gusting 3 22.2
2019-Aug-23 20:44 002 1 gusting 6 22.2
2019-Aug-23 20:34 007 1 gusting 7 22.8
2019-Aug-23 20:24 339 1 gusting 5 22.8
2019-Aug-23 20:14 322 0 gusting 4 22.2
2019-Aug-23 20:04 353 2 gusting 5 22.2
2019-Aug-23 19:54 355 1 gusting 6 22.2
2019-Aug-23 19:44 011 1 gusting 7 22.2
2019-Aug-23 19:34 011 2 gusting 6 22.2
2019-Aug-23 19:24 336 4 gusting 7 21.7
2019-Aug-23 19:14 334 4 gusting 8 21.7
2019-Aug-23 19:04 329 2 gusting 6 21.7
2019-Aug-23 18:54 359 1 gusting 5 21.7
2019-Aug-23 18:44 007 1 gusting 6 21.7
2019-Aug-23 18:34 341 2 gusting 6 21.7
2019-Aug-23 18:24 339 3 gusting 10 21.7
2019-Aug-23 18:14 354 3 gusting 7 21.7
2019-Aug-23 18:04 342 3 gusting 8 21.7
2019-Aug-23 17:54 345 1 gusting 7 21.7
2019-Aug-23 17:44 324 2 gusting 8 21.7
2019-Aug-23 17:34 345 4 gusting 9 21.7
2019-Aug-23 17:24 357 4 gusting 7 21.7
2019-Aug-23 17:14 011 2 gusting 6 21.1
2019-Aug-23 17:04 009 2 gusting 5 20.6
2019-Aug-23 16:54 022 0 gusting 4 20.0
2019-Aug-23 16:44 305 1 gusting 6 20.0
2019-Aug-23 16:34 304 1 gusting 3 19.4
2019-Aug-23 16:24 001 2 gusting 8 19.4
2019-Aug-23 16:14 317 3 gusting 6 19.4
2019-Aug-23 16:04 349 1 gusting 4 19.4
2019-Aug-23 15:54 325 2 gusting 3 19.4
2019-Aug-23 15:44 296 0 gusting 2 18.9
2019-Aug-23 15:34 358 1 gusting 3 18.9
2019-Aug-23 15:24 003 2 gusting 6 18.3
2019-Aug-23 15:14 313 0 gusting 3 18.3
2019-Aug-23 15:04 346 1 gusting 3 18.3
2019-Aug-23 14:54 023 18.3
2019-Aug-23 14:44 013 0 gusting 4 18.3
2019-Aug-23 14:34 358 1 gusting 4 18.3
2019-Aug-23 14:24 345 3 gusting 10 18.3
2019-Aug-23 14:14 345 4 gusting 9 18.3
2019-Aug-23 14:04 348 3 gusting 7 18.9
2019-Aug-23 13:54 013 3 gusting 9 18.9
2019-Aug-23 13:44 347 6 gusting 12 19.4
2019-Aug-23 13:34 330 5 gusting 11 19.4
2019-Aug-23 13:24 324 4 gusting 10 20.6
2019-Aug-23 13:14 337 3 gusting 9 21.1
2019-Aug-23 13:04 006 2 gusting 7 21.1
2019-Aug-23 12:54 338 2 gusting 8 21.1
2019-Aug-23 12:44 003 4 gusting 12 21.7
2019-Aug-23 12:34 356 2 gusting 6 21.7
2019-Aug-23 12:24 21.7
2019-Aug-23 12:14 003 6 gusting 10 21.1
2019-Aug-23 12:04 038 1 gusting 6 21.1
2019-Aug-23 11:54 355 2 gusting 5 20.6
2019-Aug-23 11:44 346 1 gusting 3 20.6
2019-Aug-23 11:34 317 0 gusting 2 20.6
2019-Aug-23 11:24 356 0 gusting 2 20.6
2019-Aug-23 11:14 333 20.6
2019-Aug-23 11:04 326 20.6
2019-Aug-23 10:54 330 20.6
2019-Aug-23 10:44 345 20.6
2019-Aug-23 10:34 340 20.6
2019-Aug-23 10:24 342 20.6
2019-Aug-23 10:14 301 20.6
2019-Aug-23 10:04 311 20.6
2019-Aug-23 09:54 326 20.6
2019-Aug-23 09:44 332 20.6
2019-Aug-23 09:34 002 20.6
2019-Aug-23 09:24 359 20.6
2019-Aug-23 09:14 008 20.6
2019-Aug-23 09:04 346 1 gusting 5 20.6
2019-Aug-23 08:54 023 0 gusting 6 21.1
2019-Aug-23 08:44 018 2 gusting 6 21.7
2019-Aug-23 08:34 006 1 gusting 3 21.7
2019-Aug-23 08:24 351 1 gusting 7 22.2
2019-Aug-23 08:14 020 3 gusting 8 22.2
2019-Aug-23 08:04 345 2 gusting 8 22.8
2019-Aug-23 07:54 009 3 gusting 7 22.8
2019-Aug-23 07:44 011 3 gusting 9 23.3
2019-Aug-23 07:34 008 5 gusting 13 23.3
2019-Aug-23 07:24 002 0 gusting 3 23.3
2019-Aug-23 07:14 302 1 gusting 3 23.3
2019-Aug-23 07:04 011 1 gusting 2 23.3
2019-Aug-23 06:54 279 1 gusting 3 23.3
2019-Aug-23 06:44 303 1 gusting 5 23.3
2019-Aug-23 06:34 279 1 gusting 5 23.9
2019-Aug-23 06:24 265 2 gusting 4 23.9
2019-Aug-23 06:14 268 1 gusting 2 23.9
2019-Aug-23 06:04 279 1 gusting 2 23.9
2019-Aug-23 05:54 281 1 gusting 6 23.9
2019-Aug-23 05:44 260 3 gusting 7 23.9
2019-Aug-23 05:34 247 2 gusting 6 23.9
2019-Aug-23 05:24 255 1 gusting 2 23.9
2019-Aug-23 05:14 253 0 gusting 3 23.9
2019-Aug-23 05:04 249 0 gusting 5 23.9
2019-Aug-23 04:54 267 2 gusting 5 23.9
2019-Aug-23 04:44 288 1 gusting 5 23.9
2019-Aug-23 04:34 271 1 gusting 6 23.9
2019-Aug-23 04:24 263 4 gusting 6 23.9
2019-Aug-23 04:14 251 1 gusting 5 23.9
2019-Aug-23 04:04 277 2 gusting 7 23.9
2019-Aug-23 03:54 267 4 gusting 8 23.9
2019-Aug-23 03:44 262 2 gusting 6 23.9
2019-Aug-23 03:34 223 1 gusting 2 24.4
2019-Aug-23 03:24 226 0 gusting 3 24.4
2019-Aug-23 03:14 235 1 gusting 2 24.4
2019-Aug-23 03:04 222 0 gusting 5 24.4
2019-Aug-23 02:54 247 2 gusting 5 24.4
2019-Aug-23 02:44 264 2 gusting 6 24.4
2019-Aug-23 02:34 226 1 gusting 4 24.4
2019-Aug-23 02:24 245 1 gusting 7 24.4
2019-Aug-23 02:14 244 2 gusting 6 23.9
2019-Aug-23 02:04 255 3 gusting 6 23.9
2019-Aug-23 01:54 254 0 gusting 3 23.9
2019-Aug-23 01:44 231 0 gusting 4 23.9
2019-Aug-23 01:34 228 0 gusting 2 23.9
2019-Aug-23 01:24 263 1 gusting 5 23.9
2019-Aug-23 01:14 247 1 gusting 6 24.4
2019-Aug-23 01:04 191 1 gusting 3 24.4
2019-Aug-23 00:54 228 1 gusting 3 24.4
2019-Aug-23 00:44 255 1 gusting 4 24.4
2019-Aug-23 00:34 240 0 gusting 3 24.4
2019-Aug-23 00:24 243 0 gusting 4 24.4
2019-Aug-23 00:14 226 1 gusting 6 24.4
2019-Aug-23 00:04 224 0 gusting 6 25.0
2019-Aug-22 23:54 242 3 gusting 6 25.0
2019-Aug-22 23:44 255 4 gusting 7 25.0
2019-Aug-22 23:34 268 3 gusting 8 25.6
2019-Aug-22 23:24 248 3 gusting 10 25.6
2019-Aug-22 23:14 261 1 gusting 7 25.6
2019-Aug-22 23:04 230 2 gusting 6 25.6
2019-Aug-22 22:54 215 3 gusting 6 26.1
2019-Aug-22 22:44 246 3 gusting 6 26.1
2019-Aug-22 22:34 241 2 gusting 13 26.7
2019-Aug-22 22:24 253 6 gusting 14 26.7
2019-Aug-22 22:14 242 6 gusting 13 26.7
2019-Aug-22 22:04 250 4 gusting 13 26.7
2019-Aug-22 21:54 235 7 gusting 13 27.2
2019-Aug-22 21:44 256 3 gusting 13 27.2
2019-Aug-22 21:34 240 5 gusting 10 27.2
2019-Aug-22 21:24 240 3 gusting 10 27.8
2019-Aug-22 21:14 214 2 gusting 10 27.8
2019-Aug-22 21:04 247 5 gusting 10 27.8
2019-Aug-22 20:54 217 4 gusting 9 27.8
2019-Aug-22 20:44 220 4 gusting 13 28.3
2019-Aug-22 20:34 228 7 gusting 15 28.3
2019-Aug-22 20:24 240 6 gusting 13 28.3
2019-Aug-22 20:14 250 6 gusting 13 28.3
2019-Aug-22 20:04 214 4 gusting 13 28.3
2019-Aug-22 19:54 238 6 gusting 16 27.8
2019-Aug-22 19:44 209 5 gusting 13 27.8
2019-Aug-22 19:34 229 5 gusting 13 28.3
2019-Aug-22 19:24 216 4 gusting 9 28.3
2019-Aug-22 19:14 209 5 gusting 13 27.8
2019-Aug-22 19:04 212 5 gusting 12 28.3
2019-Aug-22 18:54 223 6 gusting 16 28.9
2019-Aug-22 18:44 200 5 gusting 13 28.9
2019-Aug-22 18:34 223 5 gusting 15 28.3
2019-Aug-22 18:24 213 5 gusting 13 28.3
2019-Aug-22 18:14 208 6 gusting 13 27.8
2019-Aug-22 18:04 209 7 gusting 13 27.8
2019-Aug-22 17:54 194 5 gusting 12 28.3
2019-Aug-22 17:44 193 6 gusting 12 28.3
2019-Aug-22 17:34 231 6 gusting 14 28.3
2019-Aug-22 17:24 239 3 gusting 12 28.3
2019-Aug-22 17:14 207 6 gusting 13 28.3
2019-Aug-22 17:04 206 6 gusting 12 28.3
2019-Aug-22 16:54 211 4 gusting 10 28.3
2019-Aug-22 16:44 194 4 gusting 9 28.3
2019-Aug-22 16:34 196 5 gusting 11 28.3
2019-Aug-22 16:24 170 4 gusting 8 28.3
2019-Aug-22 16:14 209 3 gusting 10 28.3
2019-Aug-22 16:04 185 4 gusting 10 28.3
2019-Aug-22 15:54 199 4 gusting 10 27.8
2019-Aug-22 15:44 220 5 gusting 9 28.3
2019-Aug-22 15:34 201 5 gusting 8 28.3
2019-Aug-22 15:24 229 2 gusting 10 28.3
2019-Aug-22 15:14 218 4 gusting 9 28.3
2019-Aug-22 15:04 188 4 gusting 9 28.3
2019-Aug-22 14:54 245 5 gusting 8 28.3
2019-Aug-22 14:44 214 4 gusting 9 27.8
2019-Aug-22 14:34 227 4 gusting 10 27.2
2019-Aug-22 14:24 207 6 gusting 8 27.2
2019-Aug-22 14:14 193 4 gusting 10 27.2
2019-Aug-22 14:04 203 4 gusting 9 27.2
2019-Aug-22 13:54 215 4 gusting 9 27.2
2019-Aug-22 13:44 211 3 gusting 7 27.2
2019-Aug-22 13:34 202 3 gusting 7 26.7
2019-Aug-22 13:24 191 3 gusting 8 26.7
2019-Aug-22 13:14 192 2 gusting 7 26.1
2019-Aug-22 13:04 201 1 gusting 6 25.6
2019-Aug-22 12:54 180 1 gusting 5 25.6
2019-Aug-22 12:44 199 0 gusting 5 25.6
2019-Aug-22 12:34 213 2 gusting 6 25.6
2019-Aug-22 12:24 239 1 gusting 6 25.0
2019-Aug-22 12:14 186 2 gusting 6 25.0
2019-Aug-22 12:04 211 2 gusting 6 25.0
2019-Aug-22 11:54 198 1 gusting 5 25.0
2019-Aug-22 11:44 200 2 gusting 5 25.0
2019-Aug-22 11:34 186 1 gusting 6 25.0
2019-Aug-22 11:24 238 2 gusting 5 25.0
2019-Aug-22 11:14 194 2 gusting 4 24.4
2019-Aug-22 11:04 204 1 gusting 4 24.4
2019-Aug-22 10:54 197 2 gusting 5 24.4
2019-Aug-22 10:44 202 1 gusting 5 24.4
2019-Aug-22 10:34 239 1 gusting 5 24.4
2019-Aug-22 10:24 216 1 gusting 3 24.4
2019-Aug-22 10:14 234 0 gusting 4 24.4
2019-Aug-22 10:04 210 1 gusting 5 24.4
2019-Aug-22 09:54 255 2 gusting 7 24.4
2019-Aug-22 09:44 270 2 gusting 7 24.4
2019-Aug-22 09:34 253 1 gusting 6 24.4
2019-Aug-22 09:24 256 3 gusting 8 24.4
2019-Aug-22 09:14 244 2 gusting 7 24.4
2019-Aug-22 09:04 253 1 gusting 4 24.4
2019-Aug-22 08:54 199 1 gusting 11 24.4
2019-Aug-22 08:44 270 3 gusting 9 24.4
2019-Aug-22 08:34 235 3 gusting 7 24.4
2019-Aug-22 08:24 230 3 gusting 8 24.4
2019-Aug-22 08:14 228 3 gusting 10 24.4
2019-Aug-22 08:04 255 5 gusting 12 24.4
2019-Aug-22 07:54 258 4 gusting 10 24.4
2019-Aug-22 07:44 240 3 gusting 10 24.4
2019-Aug-22 07:34 245 4 gusting 12 25.0
2019-Aug-22 07:24 240 6 gusting 13 25.0
2019-Aug-22 07:14 247 5 gusting 13 25.0
2019-Aug-22 07:04 261 8 gusting 15 25.0
2019-Aug-22 06:54 261 7 gusting 14 25.0
2019-Aug-22 06:44 242 6 gusting 10 25.0
2019-Aug-22 06:34 245 6 gusting 11 25.0
2019-Aug-22 06:24 261 1 gusting 10 25.0
2019-Aug-22 06:14 272 4 gusting 12 25.0
2019-Aug-22 06:04 234 4 gusting 9 24.4
2019-Aug-22 05:54 266 3 gusting 9 24.4
2019-Aug-22 05:44 243 4 gusting 11 24.4
2019-Aug-22 05:34 243 6 gusting 13 24.4
2019-Aug-22 05:24 240 4 gusting 11 24.4
2019-Aug-22 05:14 263 5 gusting 11 24.4
2019-Aug-22 05:04 250 6 gusting 15 24.4
2019-Aug-22 04:54 252 7 gusting 14 24.4
2019-Aug-22 04:44 257 6 gusting 16 24.4
2019-Aug-22 04:34 267 6 gusting 13 24.4
2019-Aug-22 04:24 223 6 gusting 18 24.4
2019-Aug-22 04:14 254 6 gusting 14 25.0
2019-Aug-22 04:04 255 6 gusting 14 25.0
2019-Aug-22 03:54 248 5 gusting 16 25.0
2019-Aug-22 03:44 259 8 gusting 14 25.0
2019-Aug-22 03:34 241 6 gusting 13 25.0
2019-Aug-22 03:24 239 5 gusting 13 25.0
2019-Aug-22 03:14 229 4 gusting 16 25.0
2019-Aug-22 03:04 228 5 gusting 12 25.0
2019-Aug-22 02:54 204 6 gusting 11 25.0
2019-Aug-22 02:44 196 4 gusting 14 25.0
2019-Aug-22 02:34 222 5 gusting 13 25.0
2019-Aug-22 02:24 232 4 gusting 14 25.0
2019-Aug-22 02:14 215 4 gusting 15 25.6
2019-Aug-22 02:04 215 6 gusting 13 25.6
2019-Aug-22 01:54 226 4 gusting 13 25.0
2019-Aug-22 01:44 245 3 gusting 13 25.0
2019-Aug-22 01:34 216 4 gusting 13 25.0
2019-Aug-22 01:24 232 6 gusting 13 25.0
2019-Aug-22 01:14 216 4 gusting 11 25.0
2019-Aug-22 01:04 217 6 gusting 14 25.0
2019-Aug-22 00:54 211 6 gusting 15 25.0
2019-Aug-22 00:44 209 4 gusting 12 25.0
2019-Aug-22 00:34 213 5 gusting 13 25.0
2019-Aug-22 00:24 224 4 gusting 12 24.4
2019-Aug-22 00:14 192 2 gusting 10 24.4
2019-Aug-22 00:04 210 4 gusting 12 24.4
2019-Aug-21 23:54 201 6 gusting 13 25.0
2019-Aug-21 23:44 209 5 gusting 12 25.0
2019-Aug-21 23:34 208 4 gusting 10 25.0
2019-Aug-21 23:24 196 5 gusting 13 25.0
2019-Aug-21 23:14 194 5 gusting 15 25.0
2019-Aug-21 23:04 213 4 gusting 10 25.0
2019-Aug-21 22:54 198 6 gusting 11 25.0
2019-Aug-21 22:44 196 4 gusting 10 25.6
2019-Aug-21 22:34 186 4 gusting 13 25.6
2019-Aug-21 22:24 197 3 gusting 12 25.6
2019-Aug-21 22:14 209 4 gusting 13 25.6
2019-Aug-21 22:04 201 6 gusting 13 25.6
2019-Aug-21 21:54 214 4 gusting 11 25.6
2019-Aug-21 21:44 207 6 gusting 13 26.1
2019-Aug-21 21:34 235 4 gusting 10 26.1
2019-Aug-21 21:24 196 5 gusting 11 26.1
2019-Aug-21 21:14 203 6 gusting 12 26.1
2019-Aug-21 21:04 227 3 gusting 18 26.1